sensor_id;sensor_type;location;lat;lon;timestamp;P1;durP1;ratioP1;P2;durP2;ratioP2
32697;SDS011;19087;51.062;3.754;2022-11-15T00:00:45;32.60;;;21.38;;
32697;SDS011;19087;51.062;3.754;2022-11-15T00:03:13;32.47;;;18.48;;
32697;SDS011;19087;51.062;3.754;2022-11-15T00:05:42;27.08;;;18.58;;
32697;SDS011;19087;51.062;3.754;2022-11-15T00:08:10;27.42;;;18.48;;
32697;SDS011;19087;51.062;3.754;2022-11-15T00:10:36;24.30;;;18.00;;
32697;SDS011;19087;51.062;3.754;2022-11-15T00:13:10;26.80;;;18.20;;
32697;SDS011;19087;51.062;3.754;2022-11-15T00:15:38;23.27;;;16.83;;
32697;SDS011;19087;51.062;3.754;2022-11-15T00:18:05;25.35;;;16.63;;
32697;SDS011;19087;51.062;3.754;2022-11-15T00:20:36;21.48;;;15.45;;
32697;SDS011;19087;51.062;3.754;2022-11-15T00:23:05;25.45;;;15.50;;
32697;SDS011;19087;51.062;3.754;2022-11-15T00:25:31;22.17;;;15.27;;
32697;SDS011;19087;51.062;3.754;2022-11-15T00:27:58;30.35;;;15.27;;
32697;SDS011;19087;51.062;3.754;2022-11-15T00:30:24;26.02;;;14.75;;
32697;SDS011;19087;51.062;3.754;2022-11-15T00:32:51;20.55;;;15.63;;
32697;SDS011;19087;51.062;3.754;2022-11-15T00:35:17;24.55;;;16.10;;
32697;SDS011;19087;51.062;3.754;2022-11-15T00:37:43;20.15;;;14.93;;
32697;SDS011;19087;51.062;3.754;2022-11-15T00:40:09;22.92;;;15.70;;
32697;SDS011;19087;51.062;3.754;2022-11-15T00:42:35;19.48;;;13.70;;
32697;SDS011;19087;51.062;3.754;2022-11-15T00:45:01;18.20;;;15.23;;
32697;SDS011;19087;51.062;3.754;2022-11-15T00:47:27;24.60;;;14.90;;
32697;SDS011;19087;51.062;3.754;2022-11-15T00:49:53;20.58;;;14.32;;
32697;SDS011;19087;51.062;3.754;2022-11-15T00:52:18;22.63;;;14.63;;
32697;SDS011;19087;51.062;3.754;2022-11-15T00:54:44;19.40;;;13.77;;
32697;SDS011;19087;51.062;3.754;2022-11-15T00:57:09;18.10;;;13.75;;
32697;SDS011;19087;51.062;3.754;2022-11-15T00:59:36;18.60;;;14.13;;
32697;SDS011;19087;51.062;3.754;2022-11-15T01:02:02;23.67;;;14.13;;
32697;SDS011;19087;51.062;3.754;2022-11-15T01:04:28;21.35;;;14.23;;
32697;SDS011;19087;51.062;3.754;2022-11-15T01:06:54;20.73;;;13.82;;
32697;SDS011;19087;51.062;3.754;2022-11-15T01:09:20;21.92;;;14.27;;
32697;SDS011;19087;51.062;3.754;2022-11-15T01:11:45;20.35;;;15.25;;
32697;SDS011;19087;51.062;3.754;2022-11-15T01:14:12;23.55;;;14.45;;
32697;SDS011;19087;51.062;3.754;2022-11-15T01:16:38;28.27;;;14.98;;
32697;SDS011;19087;51.062;3.754;2022-11-15T01:19:04;19.17;;;14.48;;
32697;SDS011;19087;51.062;3.754;2022-11-15T01:21:31;20.80;;;14.65;;
32697;SDS011;19087;51.062;3.754;2022-11-15T01:23:56;24.65;;;15.73;;
32697;SDS011;19087;51.062;3.754;2022-11-15T01:26:23;25.63;;;14.82;;
32697;SDS011;19087;51.062;3.754;2022-11-15T01:28:49;20.58;;;14.02;;
32697;SDS011;19087;51.062;3.754;2022-11-15T01:31:16;24.75;;;15.90;;
32697;SDS011;19087;51.062;3.754;2022-11-15T01:33:44;19.48;;;13.40;;
32697;SDS011;19087;51.062;3.754;2022-11-15T01:36:14;22.23;;;14.23;;
32697;SDS011;19087;51.062;3.754;2022-11-15T01:38:41;21.58;;;13.18;;
32697;SDS011;19087;51.062;3.754;2022-11-15T01:41:13;19.80;;;13.50;;
32697;SDS011;19087;51.062;3.754;2022-11-15T01:43:44;19.42;;;12.85;;
32697;SDS011;19087;51.062;3.754;2022-11-15T01:46:28;21.38;;;12.60;;
32697;SDS011;19087;51.062;3.754;2022-11-15T01:49:00;24.25;;;12.70;;
32697;SDS011;19087;51.062;3.754;2022-11-15T01:51:31;19.67;;;12.57;;
32697;SDS011;19087;51.062;3.754;2022-11-15T01:54:00;20.65;;;12.20;;
32697;SDS011;19087;51.062;3.754;2022-11-15T01:56:32;24.85;;;12.88;;
32697;SDS011;19087;51.062;3.754;2022-11-15T01:59:02;17.33;;;12.00;;
32697;SDS011;19087;51.062;3.754;2022-11-15T02:01:30;18.38;;;11.27;;
32697;SDS011;19087;51.062;3.754;2022-11-15T02:03:58;18.08;;;11.15;;
32697;SDS011;19087;51.062;3.754;2022-11-15T02:06:28;20.50;;;12.20;;
32697;SDS011;19087;51.062;3.754;2022-11-15T02:08:55;18.63;;;10.15;;
32697;SDS011;19087;51.062;3.754;2022-11-15T02:11:22;18.20;;;10.23;;
32697;SDS011;19087;51.062;3.754;2022-11-15T02:13:47;19.85;;;10.55;;
32697;SDS011;19087;51.062;3.754;2022-11-15T02:16:22;18.38;;;11.18;;
32697;SDS011;19087;51.062;3.754;2022-11-15T02:19:00;15.68;;;9.40;;
32697;SDS011;19087;51.062;3.754;2022-11-15T02:35:18;18.55;;;9.77;;
32697;SDS011;19087;51.062;3.754;2022-11-15T02:40:07;16.23;;;7.75;;
32697;SDS011;19087;51.062;3.754;2022-11-15T02:42:45;16.98;;;8.27;;
32697;SDS011;19087;51.062;3.754;2022-11-15T02:45:44;17.55;;;8.60;;
32697;SDS011;19087;51.062;3.754;2022-11-15T02:48:15;19.77;;;8.88;;
32697;SDS011;19087;51.062;3.754;2022-11-15T02:50:43;14.48;;;7.03;;
32697;SDS011;19087;51.062;3.754;2022-11-15T02:53:10;19.67;;;7.07;;
32697;SDS011;19087;51.062;3.754;2022-11-15T02:55:37;16.58;;;7.32;;
32697;SDS011;19087;51.062;3.754;2022-11-15T03:00:35;11.18;;;5.93;;
32697;SDS011;19087;51.062;3.754;2022-11-15T03:05:58;14.98;;;7.18;;
32697;SDS011;19087;51.062;3.754;2022-11-15T03:08:45;12.33;;;6.03;;
32697;SDS011;19087;51.062;3.754;2022-11-15T03:11:29;13.70;;;7.00;;
32697;SDS011;19087;51.062;3.754;2022-11-15T03:19:40;14.77;;;6.40;;
32697;SDS011;19087;51.062;3.754;2022-11-15T03:22:12;12.93;;;5.97;;
32697;SDS011;19087;51.062;3.754;2022-11-15T03:24:42;12.98;;;6.20;;
32697;SDS011;19087;51.062;3.754;2022-11-15T03:27:11;19.42;;;7.60;;
32697;SDS011;19087;51.062;3.754;2022-11-15T03:29:41;13.10;;;5.72;;
32697;SDS011;19087;51.062;3.754;2022-11-15T03:32:26;15.43;;;6.13;;
32697;SDS011;19087;51.062;3.754;2022-11-15T03:40:39;17.75;;;5.85;;
32697;SDS011;19087;51.062;3.754;2022-11-15T03:45:54;13.45;;;6.32;;
32697;SDS011;19087;51.062;3.754;2022-11-15T03:48:27;16.38;;;5.85;;
32697;SDS011;19087;51.062;3.754;2022-11-15T03:50:58;13.80;;;5.53;;
32697;SDS011;19087;51.062;3.754;2022-11-15T03:53:24;17.40;;;5.78;;
32697;SDS011;19087;51.062;3.754;2022-11-15T03:55:50;15.07;;;5.90;;
32697;SDS011;19087;51.062;3.754;2022-11-15T03:58:17;13.73;;;5.65;;
32697;SDS011;19087;51.062;3.754;2022-11-15T04:00:42;12.30;;;5.85;;
32697;SDS011;19087;51.062;3.754;2022-11-15T04:03:08;14.90;;;5.70;;
32697;SDS011;19087;51.062;3.754;2022-11-15T04:05:33;13.60;;;6.07;;
32697;SDS011;19087;51.062;3.754;2022-11-15T04:07:59;11.02;;;5.95;;
32697;SDS011;19087;51.062;3.754;2022-11-15T04:10:25;12.45;;;5.32;;
32697;SDS011;19087;51.062;3.754;2022-11-15T04:12:51;10.63;;;6.05;;
32697;SDS011;19087;51.062;3.754;2022-11-15T04:15:18;8.85;;;5.25;;
32697;SDS011;19087;51.062;3.754;2022-11-15T04:17:48;15.45;;;6.20;;
32697;SDS011;19087;51.062;3.754;2022-11-15T04:23:05;13.73;;;5.53;;
32697;SDS011;19087;51.062;3.754;2022-11-15T04:25:52;8.38;;;5.30;;
32697;SDS011;19087;51.062;3.754;2022-11-15T04:28:20;14.25;;;5.78;;
32697;SDS011;19087;51.062;3.754;2022-11-15T04:30:46;13.90;;;5.78;;
32697;SDS011;19087;51.062;3.754;2022-11-15T04:33:13;10.90;;;5.55;;
32697;SDS011;19087;51.062;3.754;2022-11-15T04:35:39;12.43;;;5.47;;
32697;SDS011;19087;51.062;3.754;2022-11-15T04:38:05;11.07;;;5.45;;
32697;SDS011;19087;51.062;3.754;2022-11-15T04:40:32;14.68;;;5.85;;
32697;SDS011;19087;51.062;3.754;2022-11-15T04:42:58;16.70;;;5.28;;
32697;SDS011;19087;51.062;3.754;2022-11-15T04:45:23;17.08;;;5.03;;
32697;SDS011;19087;51.062;3.754;2022-11-15T04:47:49;15.82;;;6.25;;
32697;SDS011;19087;51.062;3.754;2022-11-15T04:50:15;11.43;;;5.55;;
32697;SDS011;19087;51.062;3.754;2022-11-15T04:52:42;19.17;;;7.75;;
32697;SDS011;19087;51.062;3.754;2022-11-15T04:55:13;14.30;;;5.45;;
32697;SDS011;19087;51.062;3.754;2022-11-15T04:57:40;13.15;;;5.28;;
32697;SDS011;19087;51.062;3.754;2022-11-15T05:00:07;12.55;;;4.85;;
32697;SDS011;19087;51.062;3.754;2022-11-15T05:02:34;10.27;;;4.65;;
32697;SDS011;19087;51.062;3.754;2022-11-15T05:05:19;13.90;;;5.00;;
32697;SDS011;19087;51.062;3.754;2022-11-15T05:07:44;16.63;;;5.47;;
32697;SDS011;19087;51.062;3.754;2022-11-15T05:10:10;13.30;;;4.88;;
32697;SDS011;19087;51.062;3.754;2022-11-15T05:12:36;14.05;;;5.43;;
32697;SDS011;19087;51.062;3.754;2022-11-15T05:15:02;14.25;;;5.65;;
32697;SDS011;19087;51.062;3.754;2022-11-15T05:17:29;12.48;;;5.53;;
32697;SDS011;19087;51.062;3.754;2022-11-15T05:19:55;14.45;;;5.78;;
32697;SDS011;19087;51.062;3.754;2022-11-15T05:22:21;16.92;;;5.93;;
32697;SDS011;19087;51.062;3.754;2022-11-15T05:24:47;16.02;;;5.05;;
32697;SDS011;19087;51.062;3.754;2022-11-15T05:27:14;20.17;;;6.50;;
32697;SDS011;19087;51.062;3.754;2022-11-15T05:29:40;19.20;;;7.07;;
32697;SDS011;19087;51.062;3.754;2022-11-15T05:32:07;17.75;;;6.38;;
32697;SDS011;19087;51.062;3.754;2022-11-15T05:34:34;18.30;;;5.97;;
32697;SDS011;19087;51.062;3.754;2022-11-15T05:37:00;11.40;;;5.22;;
32697;SDS011;19087;51.062;3.754;2022-11-15T05:39:26;12.10;;;5.32;;
32697;SDS011;19087;51.062;3.754;2022-11-15T05:41:56;17.48;;;5.95;;
32697;SDS011;19087;51.062;3.754;2022-11-15T05:44:34;14.07;;;4.95;;
32697;SDS011;19087;51.062;3.754;2022-11-15T05:47:02;11.98;;;5.32;;
32697;SDS011;19087;51.062;3.754;2022-11-15T05:49:33;13.55;;;5.38;;
32697;SDS011;19087;51.062;3.754;2022-11-15T05:52:03;15.00;;;4.90;;
32697;SDS011;19087;51.062;3.754;2022-11-15T05:54:30;14.43;;;4.90;;
32697;SDS011;19087;51.062;3.754;2022-11-15T05:56:57;10.80;;;4.90;;
32697;SDS011;19087;51.062;3.754;2022-11-15T05:59:24;10.73;;;4.70;;
32697;SDS011;19087;51.062;3.754;2022-11-15T06:01:50;12.02;;;4.78;;
32697;SDS011;19087;51.062;3.754;2022-11-15T06:04:16;14.20;;;5.15;;
32697;SDS011;19087;51.062;3.754;2022-11-15T06:06:42;12.82;;;4.65;;
32697;SDS011;19087;51.062;3.754;2022-11-15T06:09:07;8.82;;;4.22;;
32697;SDS011;19087;51.062;3.754;2022-11-15T06:11:33;11.32;;;5.00;;
32697;SDS011;19087;51.062;3.754;2022-11-15T06:13:59;13.48;;;5.07;;
32697;SDS011;19087;51.062;3.754;2022-11-15T06:19:46;15.45;;;6.20;;
32697;SDS011;19087;51.062;3.754;2022-11-15T06:22:12;13.63;;;5.20;;
32697;SDS011;19087;51.062;3.754;2022-11-15T06:24:38;13.30;;;5.97;;
32697;SDS011;19087;51.062;3.754;2022-11-15T06:27:03;9.43;;;5.32;;
32697;SDS011;19087;51.062;3.754;2022-11-15T06:36:13;14.95;;;6.25;;
32697;SDS011;19087;51.062;3.754;2022-11-15T06:38:41;9.00;;;5.70;;
32697;SDS011;19087;51.062;3.754;2022-11-15T06:41:08;12.35;;;5.60;;
32697;SDS011;19087;51.062;3.754;2022-11-15T06:43:36;19.50;;;6.07;;
32697;SDS011;19087;51.062;3.754;2022-11-15T06:46:03;14.73;;;7.57;;
32697;SDS011;19087;51.062;3.754;2022-11-15T06:48:31;13.65;;;6.78;;
32697;SDS011;19087;51.062;3.754;2022-11-15T06:50:59;13.68;;;6.85;;
32697;SDS011;19087;51.062;3.754;2022-11-15T06:53:27;11.35;;;6.53;;
32697;SDS011;19087;51.062;3.754;2022-11-15T06:55:57;11.85;;;6.50;;
32697;SDS011;19087;51.062;3.754;2022-11-15T06:58:26;15.25;;;7.18;;
32697;SDS011;19087;51.062;3.754;2022-11-15T07:00:53;12.38;;;6.72;;
32697;SDS011;19087;51.062;3.754;2022-11-15T07:03:19;17.42;;;5.78;;
32697;SDS011;19087;51.062;3.754;2022-11-15T07:05:51;15.57;;;6.85;;
32697;SDS011;19087;51.062;3.754;2022-11-15T07:08:20;12.02;;;6.45;;
32697;SDS011;19087;51.062;3.754;2022-11-15T07:10:46;14.45;;;6.60;;
32697;SDS011;19087;51.062;3.754;2022-11-15T07:13:12;11.85;;;5.85;;
32697;SDS011;19087;51.062;3.754;2022-11-15T07:15:38;12.63;;;6.20;;
32697;SDS011;19087;51.062;3.754;2022-11-15T07:18:03;9.88;;;6.55;;
32697;SDS011;19087;51.062;3.754;2022-11-15T07:20:29;10.65;;;6.70;;
32697;SDS011;19087;51.062;3.754;2022-11-15T07:23:04;13.82;;;6.10;;
32697;SDS011;19087;51.062;3.754;2022-11-15T07:25:30;10.27;;;5.82;;
32697;SDS011;19087;51.062;3.754;2022-11-15T07:27:57;14.57;;;6.07;;
32697;SDS011;19087;51.062;3.754;2022-11-15T07:30:24;9.70;;;5.22;;
32697;SDS011;19087;51.062;3.754;2022-11-15T07:32:54;19.77;;;5.53;;
32697;SDS011;19087;51.062;3.754;2022-11-15T07:35:24;11.18;;;6.15;;
32697;SDS011;19087;51.062;3.754;2022-11-15T07:37:58;12.40;;;5.47;;
32697;SDS011;19087;51.062;3.754;2022-11-15T07:40:26;13.57;;;5.68;;
32697;SDS011;19087;51.062;3.754;2022-11-15T07:43:03;11.93;;;5.55;;
32697;SDS011;19087;51.062;3.754;2022-11-15T07:45:31;10.93;;;5.85;;
32697;SDS011;19087;51.062;3.754;2022-11-15T07:51:20;13.90;;;6.53;;
32697;SDS011;19087;51.062;3.754;2022-11-15T07:53:46;9.90;;;5.43;;
32697;SDS011;19087;51.062;3.754;2022-11-15T07:56:12;18.13;;;5.20;;
32697;SDS011;19087;51.062;3.754;2022-11-15T07:58:38;17.13;;;5.38;;
32697;SDS011;19087;51.062;3.754;2022-11-15T08:01:06;14.57;;;5.47;;
32697;SDS011;19087;51.062;3.754;2022-11-15T08:03:34;13.10;;;5.00;;
32697;SDS011;19087;51.062;3.754;2022-11-15T08:06:00;15.93;;;4.63;;
32697;SDS011;19087;51.062;3.754;2022-11-15T08:08:26;7.15;;;4.13;;
32697;SDS011;19087;51.062;3.754;2022-11-15T08:10:51;10.02;;;4.35;;
32697;SDS011;19087;51.062;3.754;2022-11-15T08:13:17;10.68;;;4.78;;
32697;SDS011;19087;51.062;3.754;2022-11-15T08:15:44;13.63;;;4.07;;
32697;SDS011;19087;51.062;3.754;2022-11-15T08:18:11;13.20;;;4.22;;
32697;SDS011;19087;51.062;3.754;2022-11-15T08:20:38;11.98;;;3.97;;
32697;SDS011;19087;51.062;3.754;2022-11-15T08:26:26;11.35;;;3.60;;
32697;SDS011;19087;51.062;3.754;2022-11-15T08:34:47;9.30;;;3.22;;
32697;SDS011;19087;51.062;3.754;2022-11-15T08:37:13;18.40;;;5.25;;
32697;SDS011;19087;51.062;3.754;2022-11-15T08:39:38;11.00;;;3.08;;
32697;SDS011;19087;51.062;3.754;2022-11-15T08:42:04;10.18;;;3.42;;
32697;SDS011;19087;51.062;3.754;2022-11-15T08:44:29;8.85;;;3.45;;
32697;SDS011;19087;51.062;3.754;2022-11-15T08:46:55;10.43;;;3.33;;
32697;SDS011;19087;51.062;3.754;2022-11-15T08:49:20;6.22;;;2.80;;
32697;SDS011;19087;51.062;3.754;2022-11-15T08:51:46;12.50;;;3.47;;
32697;SDS011;19087;51.062;3.754;2022-11-15T08:54:12;9.15;;;2.88;;
32697;SDS011;19087;51.062;3.754;2022-11-15T08:56:37;9.63;;;2.50;;
32697;SDS011;19087;51.062;3.754;2022-11-15T08:59:03;11.65;;;2.83;;
32697;SDS011;19087;51.062;3.754;2022-11-15T09:01:28;11.98;;;3.30;;
32697;SDS011;19087;51.062;3.754;2022-11-15T09:03:54;12.98;;;2.50;;
32697;SDS011;19087;51.062;3.754;2022-11-15T09:06:20;12.80;;;3.25;;
32697;SDS011;19087;51.062;3.754;2022-11-15T09:08:45;11.80;;;3.10;;
32697;SDS011;19087;51.062;3.754;2022-11-15T09:11:11;9.35;;;2.80;;
32697;SDS011;19087;51.062;3.754;2022-11-15T09:13:39;10.63;;;2.90;;
32697;SDS011;19087;51.062;3.754;2022-11-15T09:16:05;12.23;;;2.45;;
32697;SDS011;19087;51.062;3.754;2022-11-15T09:18:31;12.93;;;2.13;;
32697;SDS011;19087;51.062;3.754;2022-11-15T09:20:57;10.88;;;2.55;;
32697;SDS011;19087;51.062;3.754;2022-11-15T09:23:24;9.15;;;1.92;;
32697;SDS011;19087;51.062;3.754;2022-11-15T09:25:50;14.52;;;2.50;;
32697;SDS011;19087;51.062;3.754;2022-11-15T09:28:16;11.45;;;2.22;;
32697;SDS011;19087;51.062;3.754;2022-11-15T09:30:41;14.13;;;2.40;;
32697;SDS011;19087;51.062;3.754;2022-11-15T09:33:08;9.48;;;2.55;;
32697;SDS011;19087;51.062;3.754;2022-11-15T09:35:34;8.18;;;2.38;;
32697;SDS011;19087;51.062;3.754;2022-11-15T09:38:00;12.30;;;2.25;;
32697;SDS011;19087;51.062;3.754;2022-11-15T09:40:26;12.02;;;2.45;;
32697;SDS011;19087;51.062;3.754;2022-11-15T09:45:40;10.82;;;2.78;;
32697;SDS011;19087;51.062;3.754;2022-11-15T09:51:13;14.38;;;2.33;;
32697;SDS011;19087;51.062;3.754;2022-11-15T09:54:08;16.20;;;2.35;;
32697;SDS011;19087;51.062;3.754;2022-11-15T09:56:41;14.45;;;3.22;;
32697;SDS011;19087;51.062;3.754;2022-11-15T10:04:33;5.72;;;1.80;;
32697;SDS011;19087;51.062;3.754;2022-11-15T10:07:03;8.82;;;2.03;;
32697;SDS011;19087;51.062;3.754;2022-11-15T10:12:22;9.68;;;2.08;;
32697;SDS011;19087;51.062;3.754;2022-11-15T10:14:49;7.68;;;1.80;;
32697;SDS011;19087;51.062;3.754;2022-11-15T10:17:32;12.50;;;2.45;;
32697;SDS011;19087;51.062;3.754;2022-11-15T10:20:21;14.50;;;2.97;;
32697;SDS011;19087;51.062;3.754;2022-11-15T10:22:52;12.90;;;2.05;;
32697;SDS011;19087;51.062;3.754;2022-11-15T10:25:22;16.45;;;2.50;;
32697;SDS011;19087;51.062;3.754;2022-11-15T10:27:58;12.10;;;2.10;;
32697;SDS011;19087;51.062;3.754;2022-11-15T10:30:34;9.82;;;2.60;;
32697;SDS011;19087;51.062;3.754;2022-11-15T10:36:13;14.52;;;2.33;;
32697;SDS011;19087;51.062;3.754;2022-11-15T10:38:51;21.52;;;3.45;;
32697;SDS011;19087;51.062;3.754;2022-11-15T10:41:21;10.40;;;2.25;;
32697;SDS011;19087;51.062;3.754;2022-11-15T10:46:26;10.00;;;2.30;;
32697;SDS011;19087;51.062;3.754;2022-11-15T10:48:52;9.77;;;2.03;;
32697;SDS011;19087;51.062;3.754;2022-11-15T10:51:22;14.82;;;2.63;;
32697;SDS011;19087;51.062;3.754;2022-11-15T10:53:54;15.40;;;2.13;;
32697;SDS011;19087;51.062;3.754;2022-11-15T10:56:22;13.80;;;3.30;;
32697;SDS011;19087;51.062;3.754;2022-11-15T10:58:52;17.00;;;2.78;;
32697;SDS011;19087;51.062;3.754;2022-11-15T11:01:24;8.68;;;2.15;;
32697;SDS011;19087;51.062;3.754;2022-11-15T11:06:28;11.65;;;2.85;;
32697;SDS011;19087;51.062;3.754;2022-11-15T11:08:59;11.13;;;2.17;;
32697;SDS011;19087;51.062;3.754;2022-11-15T11:11:44;11.32;;;1.77;;
32697;SDS011;19087;51.062;3.754;2022-11-15T11:14:24;12.10;;;2.53;;
32697;SDS011;19087;51.062;3.754;2022-11-15T11:19:56;10.88;;;2.10;;
32697;SDS011;19087;51.062;3.754;2022-11-15T11:22:35;11.07;;;1.88;;
32697;SDS011;19087;51.062;3.754;2022-11-15T11:25:33;8.55;;;1.67;;
32697;SDS011;19087;51.062;3.754;2022-11-15T11:33:27;12.55;;;2.25;;
32697;SDS011;19087;51.062;3.754;2022-11-15T11:47:09;10.35;;;2.17;;
32697;SDS011;19087;51.062;3.754;2022-11-15T11:52:08;9.43;;;1.67;;
32697;SDS011;19087;51.062;3.754;2022-11-15T11:54:54;8.63;;;1.73;;
32697;SDS011;19087;51.062;3.754;2022-11-15T11:57:43;7.18;;;1.73;;
32697;SDS011;19087;51.062;3.754;2022-11-15T12:00:15;9.88;;;2.13;;
32697;SDS011;19087;51.062;3.754;2022-11-15T12:05:26;11.88;;;2.20;;
32697;SDS011;19087;51.062;3.754;2022-11-15T12:11:09;8.02;;;1.88;;
32697;SDS011;19087;51.062;3.754;2022-11-15T12:13:42;8.98;;;2.17;;
32697;SDS011;19087;51.062;3.754;2022-11-15T12:16:12;8.52;;;2.47;;
32697;SDS011;19087;51.062;3.754;2022-11-15T12:18:52;8.77;;;1.52;;
32697;SDS011;19087;51.062;3.754;2022-11-15T12:24:28;12.73;;;2.92;;
32697;SDS011;19087;51.062;3.754;2022-11-15T12:27:01;8.65;;;1.35;;
32697;SDS011;19087;51.062;3.754;2022-11-15T12:29:39;5.53;;;2.08;;
32697;SDS011;19087;51.062;3.754;2022-11-15T12:35:34;4.57;;;1.85;;
32697;SDS011;19087;51.062;3.754;2022-11-15T12:38:02;8.20;;;1.75;;
32697;SDS011;19087;51.062;3.754;2022-11-15T12:40:36;5.38;;;1.58;;
32697;SDS011;19087;51.062;3.754;2022-11-15T12:45:38;12.48;;;2.25;;
32697;SDS011;19087;51.062;3.754;2022-11-15T13:06:52;7.28;;;2.65;;
32697;SDS011;19087;51.062;3.754;2022-11-15T13:12:06;8.85;;;1.83;;
32697;SDS011;19087;51.062;3.754;2022-11-15T13:14:59;9.15;;;2.08;;
32697;SDS011;19087;51.062;3.754;2022-11-15T13:17:32;10.77;;;2.13;;
32697;SDS011;19087;51.062;3.754;2022-11-15T13:30:39;4.35;;;1.75;;
32697;SDS011;19087;51.062;3.754;2022-11-15T13:33:14;7.15;;;1.83;;
32697;SDS011;19087;51.062;3.754;2022-11-15T13:35:42;11.85;;;2.53;;
32697;SDS011;19087;51.062;3.754;2022-11-15T13:38:33;5.53;;;1.90;;
32697;SDS011;19087;51.062;3.754;2022-11-15T13:40:59;10.98;;;1.50;;
32697;SDS011;19087;51.062;3.754;2022-11-15T13:43:37;11.45;;;2.10;;
32697;SDS011;19087;51.062;3.754;2022-11-15T13:46:13;7.20;;;2.08;;
32697;SDS011;19087;51.062;3.754;2022-11-15T13:51:30;4.55;;;1.63;;
32697;SDS011;19087;51.062;3.754;2022-11-15T13:56:51;12.48;;;2.60;;
32697;SDS011;19087;51.062;3.754;2022-11-15T13:59:31;6.18;;;2.25;;
32697;SDS011;19087;51.062;3.754;2022-11-15T14:02:01;9.60;;;1.83;;
32697;SDS011;19087;51.062;3.754;2022-11-15T14:04:37;3.78;;;1.63;;
32697;SDS011;19087;51.062;3.754;2022-11-15T14:07:14;10.85;;;2.25;;
32697;SDS011;19087;51.062;3.754;2022-11-15T14:09:45;9.25;;;2.08;;
32697;SDS011;19087;51.062;3.754;2022-11-15T14:12:22;6.53;;;2.05;;
32697;SDS011;19087;51.062;3.754;2022-11-15T14:14:57;9.15;;;2.10;;
32697;SDS011;19087;51.062;3.754;2022-11-15T14:19:56;8.57;;;2.35;;
32697;SDS011;19087;51.062;3.754;2022-11-15T14:30:49;6.32;;;1.92;;
32697;SDS011;19087;51.062;3.754;2022-11-15T14:36:13;4.35;;;2.20;;
32697;SDS011;19087;51.062;3.754;2022-11-15T14:38:44;4.05;;;1.73;;
32697;SDS011;19087;51.062;3.754;2022-11-15T14:41:21;3.28;;;1.70;;
32697;SDS011;19087;51.062;3.754;2022-11-15T14:43:48;3.20;;;1.63;;
32697;SDS011;19087;51.062;3.754;2022-11-15T14:46:15;6.65;;;2.80;;
32697;SDS011;19087;51.062;3.754;2022-11-15T14:48:41;5.03;;;2.10;;
32697;SDS011;19087;51.062;3.754;2022-11-15T14:51:14;3.75;;;1.98;;
32697;SDS011;19087;51.062;3.754;2022-11-15T14:53:42;5.70;;;2.25;;
32697;SDS011;19087;51.062;3.754;2022-11-15T14:56:08;6.43;;;2.13;;
32697;SDS011;19087;51.062;3.754;2022-11-15T14:58:34;3.55;;;2.20;;
32697;SDS011;19087;51.062;3.754;2022-11-15T15:01:01;7.13;;;2.35;;
32697;SDS011;19087;51.062;3.754;2022-11-15T15:03:28;5.22;;;2.13;;
32697;SDS011;19087;51.062;3.754;2022-11-15T15:05:54;6.07;;;2.28;;
32697;SDS011;19087;51.062;3.754;2022-11-15T15:08:21;4.85;;;2.13;;
32697;SDS011;19087;51.062;3.754;2022-11-15T15:10:46;7.35;;;2.92;;
32697;SDS011;19087;51.062;3.754;2022-11-15T15:13:19;7.00;;;2.40;;
32697;SDS011;19087;51.062;3.754;2022-11-15T15:15:47;4.57;;;2.50;;
32697;SDS011;19087;51.062;3.754;2022-11-15T15:18:13;7.30;;;2.70;;
32697;SDS011;19087;51.062;3.754;2022-11-15T15:20:41;4.60;;;2.67;;
32697;SDS011;19087;51.062;3.754;2022-11-15T15:23:14;5.55;;;2.85;;
32697;SDS011;19087;51.062;3.754;2022-11-15T15:25:41;6.85;;;2.95;;
32697;SDS011;19087;51.062;3.754;2022-11-15T15:28:07;6.28;;;3.00;;
32697;SDS011;19087;51.062;3.754;2022-11-15T15:30:34;6.90;;;2.63;;
32697;SDS011;19087;51.062;3.754;2022-11-15T15:32:59;5.05;;;2.97;;
32697;SDS011;19087;51.062;3.754;2022-11-15T15:35:27;9.63;;;3.03;;
32697;SDS011;19087;51.062;3.754;2022-11-15T15:37:57;4.97;;;3.03;;
32697;SDS011;19087;51.062;3.754;2022-11-15T15:40:24;6.35;;;3.58;;
32697;SDS011;19087;51.062;3.754;2022-11-15T15:42:52;5.70;;;3.17;;
32697;SDS011;19087;51.062;3.754;2022-11-15T15:45:18;5.13;;;3.20;;
32697;SDS011;19087;51.062;3.754;2022-11-15T15:47:44;7.05;;;4.05;;
32697;SDS011;19087;51.062;3.754;2022-11-15T15:52:51;7.47;;;3.58;;
32697;SDS011;19087;51.062;3.754;2022-11-15T15:55:19;9.25;;;3.28;;
32697;SDS011;19087;51.062;3.754;2022-11-15T15:57:45;5.63;;;2.72;;
32697;SDS011;19087;51.062;3.754;2022-11-15T16:00:11;6.00;;;3.30;;
32697;SDS011;19087;51.062;3.754;2022-11-15T16:02:38;5.60;;;3.28;;
32697;SDS011;19087;51.062;3.754;2022-11-15T16:05:04;4.15;;;2.80;;
32697;SDS011;19087;51.062;3.754;2022-11-15T16:07:31;7.35;;;3.08;;
32697;SDS011;19087;51.062;3.754;2022-11-15T16:09:57;3.95;;;2.70;;
32697;SDS011;19087;51.062;3.754;2022-11-15T16:12:28;3.42;;;2.55;;
32697;SDS011;19087;51.062;3.754;2022-11-15T16:14:55;4.75;;;3.03;;
32697;SDS011;19087;51.062;3.754;2022-11-15T16:17:21;4.32;;;2.97;;
32697;SDS011;19087;51.062;3.754;2022-11-15T16:19:50;4.85;;;2.58;;
32697;SDS011;19087;51.062;3.754;2022-11-15T16:22:16;3.47;;;2.70;;
32697;SDS011;19087;51.062;3.754;2022-11-15T16:24:41;5.97;;;2.95;;
32697;SDS011;19087;51.062;3.754;2022-11-15T16:27:14;6.30;;;3.00;;
32697;SDS011;19087;51.062;3.754;2022-11-15T16:29:40;5.10;;;3.00;;
32697;SDS011;19087;51.062;3.754;2022-11-15T16:32:06;4.82;;;3.08;;
32697;SDS011;19087;51.062;3.754;2022-11-15T16:34:32;8.82;;;3.92;;
32697;SDS011;19087;51.062;3.754;2022-11-15T16:36:57;2.97;;;2.60;;
32697;SDS011;19087;51.062;3.754;2022-11-15T16:39:23;5.68;;;3.42;;
32697;SDS011;19087;51.062;3.754;2022-11-15T16:41:49;3.75;;;2.35;;
32697;SDS011;19087;51.062;3.754;2022-11-15T16:44:14;3.72;;;3.38;;
32697;SDS011;19087;51.062;3.754;2022-11-15T16:46:43;3.78;;;3.35;;
32697;SDS011;19087;51.062;3.754;2022-11-15T16:49:15;5.07;;;2.80;;
32697;SDS011;19087;51.062;3.754;2022-11-15T16:51:42;4.38;;;3.15;;
32697;SDS011;19087;51.062;3.754;2022-11-15T16:54:10;5.05;;;3.15;;
32697;SDS011;19087;51.062;3.754;2022-11-15T16:56:37;4.32;;;3.20;;
32697;SDS011;19087;51.062;3.754;2022-11-15T16:59:05;7.45;;;3.72;;
32697;SDS011;19087;51.062;3.754;2022-11-15T17:01:35;5.32;;;3.55;;
32697;SDS011;19087;51.062;3.754;2022-11-15T17:04:11;4.80;;;3.55;;
32697;SDS011;19087;51.062;3.754;2022-11-15T17:06:40;5.60;;;3.78;;
32697;SDS011;19087;51.062;3.754;2022-11-15T17:09:18;7.50;;;3.75;;
32697;SDS011;19087;51.062;3.754;2022-11-15T17:11:49;6.15;;;3.90;;
32697;SDS011;19087;51.062;3.754;2022-11-15T17:14:17;6.90;;;4.13;;
32697;SDS011;19087;51.062;3.754;2022-11-15T17:16:43;9.55;;;3.58;;
32697;SDS011;19087;51.062;3.754;2022-11-15T17:19:16;4.15;;;3.35;;
32697;SDS011;19087;51.062;3.754;2022-11-15T17:21:43;5.50;;;3.67;;
32697;SDS011;19087;51.062;3.754;2022-11-15T17:24:10;5.30;;;3.38;;
32697;SDS011;19087;51.062;3.754;2022-11-15T17:26:36;5.38;;;3.92;;
32697;SDS011;19087;51.062;3.754;2022-11-15T17:29:03;6.57;;;4.28;;
32697;SDS011;19087;51.062;3.754;2022-11-15T17:31:32;6.90;;;5.47;;
32697;SDS011;19087;51.062;3.754;2022-11-15T17:34:01;6.15;;;4.18;;
32697;SDS011;19087;51.062;3.754;2022-11-15T17:36:28;5.03;;;4.47;;
32697;SDS011;19087;51.062;3.754;2022-11-15T17:38:54;4.85;;;4.07;;
32697;SDS011;19087;51.062;3.754;2022-11-15T17:41:21;6.05;;;4.13;;
32697;SDS011;19087;51.062;3.754;2022-11-15T17:43:48;5.35;;;4.13;;